Time;durP1;ratioP1;P1;durP2;ratioP2;P2;SDS_P1;SDS_P2;PMS_P1;PMS_P2;Temp;Humidity;BMP_temperature;BMP_pressure;BME280_temperature;BME280_humidity;BME280_pressure;Samples;Min_cycle;Max_cycle;Signal;HPM_P1;HPM_P2
2023/01/16 00:00:09;;;;;;;;;6.20;6.20;;;;;;;;5312566;27;8799;-76
2023/01/16 00:02:40;;;;;;;;;2.60;1.00;;;;;;;;5295631;27;8768;-75
2023/01/16 00:05:11;;;;;;;;;6.20;6.20;;;;;;;;5312892;27;9451;-75
2023/01/16 00:07:42;;;;;;;;;8.00;8.00;;;;;;;;5331101;27;8790;-76
2023/01/16 00:10:32;;;;;;;;;4.00;3.60;;;;;;;;5331055;27;9748;-77
2023/01/16 00:13:21;;;;;;;;;5.80;5.80;;;;;;;;5297931;27;8795;-77
2023/01/16 00:15:52;;;;;;;;;6.20;4.80;;;;;;;;5295281;27;8776;-76
2023/01/16 00:18:23;;;;;;;;;4.00;4.00;;;;;;;;5295273;27;8817;-75
2023/01/16 00:20:54;;;;;;;;;5.20;4.40;;;;;;;;5312494;27;9473;-76
2023/01/16 00:23:43;;;;;;;;;4.00;4.00;;;;;;;;5331190;27;8918;-75
2023/01/16 00:26:33;;;;;;;;;5.20;4.00;;;;;;;;5330665;27;8768;-75
2023/01/16 00:29:23;;;;;;;;;7.60;7.60;;;;;;;;5301947;27;8776;-75
2023/01/16 00:31:53;;;;;;;;;4.00;4.00;;;;;;;;5282452;27;8872;-76
2023/01/16 00:34:43;;;;;;;;;3.00;3.00;;;;;;;;5319525;27;8850;-75
2023/01/16 00:37:14;;;;;;;;;8.20;8.20;;;;;;;;5316484;27;8796;-77
2023/01/16 00:39:45;;;;;;;;;4.00;4.00;;;;;;;;5315406;27;8791;-75
2023/01/16 00:42:16;;;;;;;;;7.00;7.00;;;;;;;;5316019;27;8815;-74
2023/01/16 00:44:47;;;;;;;;;4.80;4.80;;;;;;;;5315760;27;8936;-74
2023/01/16 00:47:36;;;;;;;;;6.00;6.00;;;;;;;;5316042;27;8808;-75
2023/01/16 00:50:07;;;;;;;;;1.00;1.00;;;;;;;;5316999;27;8792;-77
2023/01/16 00:52:38;;;;;;;;;4.00;4.00;;;;;;;;5299191;27;8776;-76
2023/01/16 00:55:09;;;;;;;;;5.20;5.20;;;;;;;;5316482;27;8768;-76
2023/01/16 00:57:59;;;;;;;;;4.80;4.80;;;;;;;;5301763;27;8787;-76
2023/01/16 01:00:30;;;;;;;;;4.00;3.60;;;;;;;;5281981;27;8795;-76
2023/01/16 01:03:02;;;;;;;;;7.00;6.20;;;;;;;;5282244;27;8784;-76
2023/01/16 01:05:37;;;;;;;;;7.20;6.40;;;;;;;;5335469;27;8830;-75
2023/01/16 01:08:08;;;;;;;;;6.40;6.40;;;;;;;;5284396;27;8848;-77
2023/01/16 01:10:39;;;;;;;;;4.80;4.80;;;;;;;;5317608;27;8903;-77
2023/01/16 01:13:11;;;;;;;;;6.80;6.00;;;;;;;;5317342;27;8808;-77
2023/01/16 01:15:42;;;;;;;;;8.20;6.20;;;;;;;;5298983;27;8784;-77
2023/01/16 01:18:13;;;;;;;;;7.80;7.80;;;;;;;;5298752;27;8796;-77
2023/01/16 01:21:03;;;;;;;;;7.40;6.40;;;;;;;;5319038;27;8776;-78
2023/01/16 01:23:55;;;;;;;;;5.60;5.60;;;;;;;;5301464;27;9486;-77
2023/01/16 01:26:44;;;;;;;;;7.80;7.80;;;;;;;;5334397;27;8871;-76
2023/01/16 01:29:15;;;;;;;;;6.00;6.00;;;;;;;;5333839;27;8760;-76
2023/01/16 01:32:05;;;;;;;;;9.00;6.00;;;;;;;;5333788;27;8750;-76
2023/01/16 01:34:36;;;;;;;;;6.40;6.40;;;;;;;;5315080;27;8934;-76
2023/01/16 01:37:07;;;;;;;;;3.40;3.40;;;;;;;;5298308;27;8790;-76
2023/01/16 01:39:57;;;;;;;;;1.80;1.80;;;;;;;;5300250;27;8780;-79
2023/01/16 01:42:43;;;;;;;;;4.00;4.00;;;;;;;;5315140;27;9622;-80
2023/01/16 01:45:17;;;;;;;;;10.00;10.00;;;;;;;;5280916;27;8784;-79
2023/01/16 01:47:54;;;;;;;;;4.00;4.00;;;;;;;;5298610;27;8760;-79
2023/01/16 01:50:51;;;;;;;;;6.00;6.00;;;;;;;;5333289;27;8780;-79
2023/01/16 01:53:25;;;;;;;;;3.40;3.40;;;;;;;;5298850;27;8823;-79
2023/01/16 01:56:27;;;;;;;;;5.80;5.80;;;;;;;;5300896;27;8767;-77
2023/01/16 01:59:00;;;;;;;;;4.40;4.40;;;;;;;;5297635;27;8801;-75
2023/01/16 02:01:31;;;;;;;;;5.00;5.00;;;;;;;;5314772;27;8752;-76
2023/01/16 02:04:06;;;;;;;;;3.20;3.20;;;;;;;;5333494;27;8764;-76
2023/01/16 02:06:47;;;;;;;;;4.40;4.40;;;;;;;;5280863;27;8772;-76
2023/01/16 02:09:18;;;;;;;;;3.20;3.20;;;;;;;;5332750;27;8765;-77
2023/01/16 02:11:57;;;;;;;;;4.00;4.00;;;;;;;;5297296;27;8760;-78
2023/01/16 02:14:30;;;;;;;;;4.80;4.80;;;;;;;;5314777;27;8776;-80
2023/01/16 02:20:20;;;;;;;;;3.60;3.60;;;;;;;;5316556;27;8764;-77
2023/01/16 02:23:00;;;;;;;;;6.00;6.00;;;;;;;;5280977;27;8780;-76
2023/01/16 02:26:06;;;;;;;;;4.80;4.80;;;;;;;;5333501;27;8821;-78
2023/01/16 02:29:15;;;;;;;;;3.40;3.40;;;;;;;;5297851;27;8775;-77
2023/01/16 02:31:47;;;;;;;;;3.00;3.00;;;;;;;;5229321;28;8780;-77
2023/01/16 02:34:24;;;;;;;;;7.00;7.00;;;;;;;;5229399;28;8805;-77
2023/01/16 02:37:24;;;;;;;;;6.80;6.80;;;;;;;;5271844;27;8776;-78
2023/01/16 02:40:15;;;;;;;;;9.00;9.00;;;;;;;;5263550;27;8764;-77
2023/01/16 02:43:05;;;;;;;;;9.60;9.60;;;;;;;;5280698;27;8911;-78
2023/01/16 02:45:42;;;;;;;;;7.40;7.40;;;;;;;;5280917;27;8792;-80
2023/01/16 02:48:25;;;;;;;;;21.80;21.00;;;;;;;;5285167;27;8786;-82
2023/01/16 02:51:15;;;;;;;;;12.60;11.60;;;;;;;;5297341;27;8799;-81
2023/01/16 02:54:10;;;;;;;;;14.20;13.20;;;;;;;;5314051;27;8772;-78
2023/01/16 02:57:04;;;;;;;;;27.00;23.60;;;;;;;;5298658;27;8756;-80
2023/01/16 02:59:36;;;;;;;;;12.80;12.60;;;;;;;;5313801;27;9656;-79
2023/01/16 03:02:08;;;;;;;;;6.60;6.60;;;;;;;;5313475;27;8768;-80
2023/01/16 03:04:41;;;;;;;;;8.20;8.20;;;;;;;;5313422;27;8771;-80
2023/01/16 03:07:36;;;;;;;;;4.40;3.80;;;;;;;;5296928;27;8769;-79
2023/01/16 03:10:40;;;;;;;;;8.00;6.80;;;;;;;;5313350;27;8764;-79
2023/01/16 03:13:24;;;;;;;;;8.60;8.60;;;;;;;;5296471;27;8815;-78
2023/01/16 03:16:01;;;;;;;;;7.40;7.40;;;;;;;;5313303;27;9504;-78
2023/01/16 03:18:35;;;;;;;;;26.20;26.20;;;;;;;;5296448;27;8745;-74
2023/01/16 03:21:25;;;;;;;;;19.40;18.40;;;;;;;;5313089;27;8760;-73
2023/01/16 03:23:59;;;;;;;;;22.20;22.00;;;;;;;;5332014;27;8769;-72
2023/01/16 03:26:48;;;;;;;;;10.00;10.00;;;;;;;;5279067;27;8849;-70
2023/01/16 03:29:42;;;;;;;;;14.20;13.40;;;;;;;;5313323;27;8833;-72
2023/01/16 03:32:36;;;;;;;;;14.60;14.60;;;;;;;;5298566;27;8783;-72
2023/01/16 03:35:13;;;;;;;;;15.40;15.00;;;;;;;;5296205;27;8823;-72
2023/01/16 03:37:52;;;;;;;;;10.40;10.00;;;;;;;;5279087;27;8783;-72
2023/01/16 03:40:44;;;;;;;;;6.00;4.80;;;;;;;;5315579;27;8798;-73
2023/01/16 03:47:46;;;;;;;;;6.40;6.40;;;;;;;;5333500;27;8771;-74
2023/01/16 03:50:23;;;;;;;;;8.80;8.80;;;;;;;;5294035;27;8784;-74
2023/01/16 03:53:15;;;;;;;;;8.60;7.80;;;;;;;;5312977;27;8834;-74
2023/01/16 03:55:55;;;;;;;;;0.00;0.00;;;;;;;;5320661;27;8799;-73
2023/01/16 03:58:46;;;;;;;;;8.80;8.00;;;;;;;;5299518;27;8807;-73
2023/01/16 04:01:24;;;;;;;;;5.20;5.20;;;;;;;;5297005;27;8764;-77
2023/01/16 04:04:03;;;;;;;;;6.60;5.60;;;;;;;;5283046;27;8768;-79
2023/01/16 04:06:50;;;;;;;;;6.00;6.00;;;;;;;;5300661;27;8803;-77
2023/01/16 04:09:24;;;;;;;;;6.40;6.40;;;;;;;;5299987;27;8790;-70
2023/01/16 04:11:57;;;;;;;;;12.20;12.20;;;;;;;;5316846;27;8784;-71
2023/01/16 04:14:29;;;;;;;;;11.20;11.20;;;;;;;;5282570;27;8808;-71
2023/01/16 04:17:16;;;;;;;;;10.00;10.00;;;;;;;;5335451;27;8776;-71
2023/01/16 04:20:06;;;;;;;;;14.20;11.60;;;;;;;;5302225;27;8871;-71
2023/01/16 04:22:38;;;;;;;;;8.20;7.80;;;;;;;;5299532;27;8788;-72
2023/01/16 04:25:10;;;;;;;;;78.80;54.00;;;;;;;;5299903;27;8868;-72
2023/01/16 04:27:41;;;;;;;;;7.40;7.40;;;;;;;;5282445;27;8776;-70
2023/01/16 04:30:15;;;;;;;;;9.40;9.40;;;;;;;;5282876;27;8776;-70
2023/01/16 04:32:46;;;;;;;;;7.40;7.40;;;;;;;;5299831;27;8772;-70
2023/01/16 04:35:18;;;;;;;;;9.80;9.00;;;;;;;;5283042;27;8782;-69
2023/01/16 04:37:49;;;;;;;;;13.00;13.00;;;;;;;;5282309;27;8778;-70
2023/01/16 04:40:21;;;;;;;;;11.40;9.40;;;;;;;;5299543;27;8782;-70
2023/01/16 04:42:54;;;;;;;;;16.40;16.00;;;;;;;;5316434;27;8768;-71
2023/01/16 04:45:46;;;;;;;;;12.80;12.80;;;;;;;;5301602;27;8808;-72
2023/01/16 04:48:17;;;;;;;;;9.00;6.60;;;;;;;;5299658;27;8764;-72
2023/01/16 04:50:49;;;;;;;;;10.00;9.80;;;;;;;;5316750;27;9415;-72
2023/01/16 04:53:20;;;;;;;;;12.20;11.80;;;;;;;;5281748;27;8792;-71
2023/01/16 04:55:51;;;;;;;;;5.00;4.60;;;;;;;;5282327;27;8756;-72
2023/01/16 04:58:22;;;;;;;;;9.80;9.60;;;;;;;;5282405;27;8764;-70
2023/01/16 05:01:12;;;;;;;;;6.20;6.20;;;;;;;;5315891;27;8856;-70
2023/01/16 05:04:03;;;;;;;;;9.00;7.40;;;;;;;;5318884;27;8788;-71
2023/01/16 05:06:37;;;;;;;;;11.40;8.40;;;;;;;;5316674;27;8744;-69
2023/01/16 05:09:08;;;;;;;;;11.20;10.60;;;;;;;;5299088;27;8874;-71
2023/01/16 05:11:39;;;;;;;;;3.00;3.00;;;;;;;;5315671;27;8760;-70
2023/01/16 05:18:34;;;;;;;;;4.80;4.80;;;;;;;;5333834;27;8815;-72
2023/01/16 05:21:05;;;;;;;;;15.60;15.60;;;;;;;;5281056;27;8768;-71
2023/01/16 05:23:55;;;;;;;;;9.00;6.80;;;;;;;;5318047;27;8888;-71
2023/01/16 05:26:26;;;;;;;;;10.80;9.80;;;;;;;;5281583;27;9479;-72
2023/01/16 05:28:57;;;;;;;;;13.80;13.80;;;;;;;;5281410;27;8975;-72
2023/01/16 05:31:28;;;;;;;;;15.60;12.20;;;;;;;;5298054;27;8794;-71
2023/01/16 05:34:00;;;;;;;;;10.40;10.00;;;;;;;;5297927;27;8814;-71
2023/01/16 05:36:31;;;;;;;;;13.80;13.80;;;;;;;;5297953;27;8790;-71
2023/01/16 05:39:02;;;;;;;;;14.60;14.60;;;;;;;;5298184;27;8772;-72
2023/01/16 05:41:33;;;;;;;;;12.00;12.00;;;;;;;;5298035;27;9416;-72
2023/01/16 05:44:23;;;;;;;;;13.00;13.00;;;;;;;;5315604;27;8768;-72
2023/01/16 05:47:13;;;;;;;;;6.80;6.40;;;;;;;;5333652;27;8938;-71
2023/01/16 05:49:44;;;;;;;;;9.40;9.40;;;;;;;;5297919;27;8792;-71
2023/01/16 05:52:16;;;;;;;;;3.20;3.20;;;;;;;;5333524;27;8780;-71
2023/01/16 05:54:47;;;;;;;;;6.60;6.20;;;;;;;;5315553;27;9501;-72
2023/01/16 05:57:18;;;;;;;;;9.00;8.80;;;;;;;;5314808;27;8804;-71
2023/01/16 05:59:52;;;;;;;;;7.00;7.00;;;;;;;;5315694;27;8772;-72
2023/01/16 06:02:24;;;;;;;;;5.80;5.80;;;;;;;;5298445;27;8775;-71
2023/01/16 06:04:55;;;;;;;;;6.60;6.60;;;;;;;;5297621;27;8859;-71
2023/01/16 06:07:27;;;;;;;;;10.00;10.00;;;;;;;;5298004;27;8795;-71
2023/01/16 06:09:58;;;;;;;;;14.20;14.00;;;;;;;;5298100;27;8922;-71
2023/01/16 06:12:31;;;;;;;;;4.80;4.80;;;;;;;;5297217;27;8863;-71
2023/01/16 06:15:03;;;;;;;;;9.80;9.80;;;;;;;;5280281;27;8799;-71
2023/01/16 06:17:53;;;;;;;;;9.00;9.00;;;;;;;;5314911;27;8772;-71
2023/01/16 06:20:25;;;;;;;;;9.60;7.00;;;;;;;;5280402;27;8803;-71
2023/01/16 06:22:56;;;;;;;;;3.60;3.60;;;;;;;;5297105;27;8792;-71
2023/01/16 06:25:27;;;;;;;;;3.00;3.00;;;;;;;;5314448;27;8776;-70
2023/01/16 06:27:58;;;;;;;;;3.80;3.80;;;;;;;;5297313;27;8919;-70
2023/01/16 06:30:29;;;;;;;;;6.40;6.40;;;;;;;;5332670;27;9482;-71
2023/01/16 06:33:00;;;;;;;;;6.00;6.00;;;;;;;;5297012;27;9486;-70
2023/01/16 06:35:31;;;;;;;;;7.40;7.40;;;;;;;;5313710;27;8783;-71
2023/01/16 06:38:02;;;;;;;;;7.00;6.50;;;;;;;;5296862;27;8780;-71
2023/01/16 06:40:33;;;;;;;;;9.75;8.50;;;;;;;;5297362;27;10381;-71
2023/01/16 06:43:04;;;;;;;;;0.00;0.00;;;;;;;;5313777;27;10506;-71
2023/01/16 06:45:35;;;;;;;;;12.60;12.60;;;;;;;;5313649;27;9466;-72
2023/01/16 06:48:07;;;;;;;;;7.00;7.00;;;;;;;;5295663;27;8819;-72
2023/01/16 06:59:45;;;;;;;;;6.20;6.20;;;;;;;;5331834;27;9423;-73
2023/01/16 07:02:16;;;;;;;;;1.00;1.00;;;;;;;;5313309;27;9447;-73
2023/01/16 07:04:47;;;;;;;;;1.80;1.80;;;;;;;;5313401;27;8794;-73
2023/01/16 07:07:19;;;;;;;;;6.00;6.00;;;;;;;;5296832;27;8791;-74
2023/01/16 07:09:50;;;;;;;;;4.00;4.00;;;;;;;;5313366;27;8768;-72
2023/01/16 07:22:38;;;;;;;;;4.00;4.00;;;;;;;;5313710;27;8776;-69
2023/01/16 07:25:12;;;;;;;;;0.00;0.00;;;;;;;;5279705;27;8756;-69
2023/01/16 07:32:10;;;;;;;;;1.80;1.80;;;;;;;;5331184;27;8740;-71
2023/01/16 07:34:42;;;;;;;;;48.25;41.25;;;;;;;;5296048;27;8807;-72
2023/01/16 07:37:19;;;;;;;;;16.00;13.20;;;;;;;;5313077;27;8898;-71
2023/01/16 07:40:09;;;;;;;;;1.80;1.80;;;;;;;;5313101;27;8795;-70
2023/01/16 07:42:43;;;;;;;;;5.80;4.80;;;;;;;;5312924;27;8814;-70
2023/01/16 07:45:15;;;;;;;;;4.60;4.60;;;;;;;;5295854;27;8800;-70
2023/01/16 07:47:46;;;;;;;;;53.00;43.00;;;;;;;;5278485;27;8788;-70
2023/01/16 07:50:17;;;;;;;;;5.60;4.00;;;;;;;;5295440;27;8767;-71
2023/01/16 07:52:49;;;;;;;;;4.00;4.00;;;;;;;;5295171;27;8772;-70
2023/01/16 07:55:24;;;;;;;;;1.40;1.40;;;;;;;;5279644;27;8788;-70
2023/01/16 07:57:55;;;;;;;;;17.20;17.00;;;;;;;;5295104;27;8918;-69
2023/01/16 08:00:26;;;;;;;;;8.40;7.80;;;;;;;;5295431;27;8795;-70
2023/01/16 08:02:59;;;;;;;;;3.00;3.00;;;;;;;;5278361;27;8798;-70
2023/01/16 08:05:50;;;;;;;;;3.40;3.40;;;;;;;;5298010;27;8768;-70
2023/01/16 08:08:20;;;;;;;;;5.60;5.60;;;;;;;;5295031;27;8792;-70
2023/01/16 08:10:55;;;;;;;;;4.00;4.00;;;;;;;;5278532;27;8783;-70
2023/01/16 08:13:44;;;;;;;;;3.00;3.00;;;;;;;;5331160;27;8815;-70
2023/01/16 08:16:15;;;;;;;;;3.50;3.50;;;;;;;;5295310;27;8796;-70
2023/01/16 08:18:48;;;;;;;;;5.00;5.00;;;;;;;;5278455;27;11401;-72
2023/01/16 08:21:19;;;;;;;;;5.80;5.80;;;;;;;;5312986;27;10085;-70
2023/01/16 08:23:50;;;;;;;;;3.00;3.00;;;;;;;;5296314;27;8795;-70
2023/01/16 08:26:21;;;;;;;;;11.00;11.00;;;;;;;;5295218;27;9479;-69
2023/01/16 08:28:52;;;;;;;;;3.20;3.20;;;;;;;;5295323;27;9405;-70
2023/01/16 08:31:23;;;;;;;;;3.00;3.00;;;;;;;;5312432;27;8772;-69
2023/01/16 08:33:54;;;;;;;;;3.60;3.60;;;;;;;;5312432;27;9971;-72
2023/01/16 08:36:25;;;;;;;;;3.00;3.00;;;;;;;;5312739;27;8902;-70
2023/01/16 08:38:56;;;;;;;;;1.40;1.40;;;;;;;;5312080;27;8776;-70
2023/01/16 08:53:22;;;;;;;;;3.00;3.00;;;;;;;;5316189;27;8775;-68
2023/01/16 08:55:53;;;;;;;;;15.50;15.50;;;;;;;;5281948;27;8748;-71
2023/01/16 08:58:24;;;;;;;;;25.00;21.80;;;;;;;;5298718;27;8794;-69
2023/01/16 09:01:15;;;;;;;;;18.40;18.40;;;;;;;;5301854;27;8864;-70
2023/01/16 09:03:46;;;;;;;;;96.50;73.50;;;;;;;;5316213;27;8908;-69
2023/01/16 09:06:17;;;;;;;;;43.50;38.50;;;;;;;;5298818;27;8756;-69
2023/01/16 09:08:48;;;;;;;;;30.00;29.25;;;;;;;;5298887;27;8749;-68
2023/01/16 09:14:08;;;;;;;;;18.80;18.40;;;;;;;;5315334;27;8873;-68
2023/01/16 09:16:39;;;;;;;;;17.00;16.75;;;;;;;;5281276;27;8784;-70
2023/01/16 09:19:10;;;;;;;;;21.50;21.00;;;;;;;;5281226;27;9901;-69
2023/01/16 09:21:41;;;;;;;;;21.00;21.00;;;;;;;;5298332;27;8780;-69
2023/01/16 09:24:12;;;;;;;;;18.50;17.50;;;;;;;;5298170;27;8764;-70
2023/01/16 09:26:43;;;;;;;;;15.80;15.80;;;;;;;;5315004;27;10579;-68
2023/01/16 09:29:14;;;;;;;;;19.00;19.00;;;;;;;;5298481;27;8796;-69
2023/01/16 09:32:08;;;;;;;;;27.40;26.60;;;;;;;;5300580;27;8779;-69
2023/01/16 09:34:40;;;;;;;;;24.80;24.80;;;;;;;;5281483;27;8818;-68
2023/01/16 09:37:12;;;;;;;;;11.20;10.60;;;;;;;;5298163;27;8791;-70
2023/01/16 09:39:43;;;;;;;;;9.00;9.00;;;;;;;;5281108;27;8780;-70
2023/01/16 09:45:32;;;;;;;;;7.40;7.40;;;;;;;;5315406;27;8852;-70
2023/01/16 09:48:18;;;;;;;;;4.00;4.00;;;;;;;;5298204;27;9482;-70
2023/01/16 09:51:10;;;;;;;;;8.20;8.20;;;;;;;;5315810;27;8772;-69
2023/01/16 09:59:21;;;;;;;;;9.00;9.00;;;;;;;;5300138;27;8787;-70
2023/01/16 10:02:13;;;;;;;;;6.60;5.20;;;;;;;;5305892;27;8780;-71
2023/01/16 10:04:46;;;;;;;;;6.40;6.40;;;;;;;;5306558;27;8898;-70
2023/01/16 10:07:38;;;;;;;;;6.00;6.00;;;;;;;;5318125;27;8792;-70
2023/01/16 10:10:20;;;;;;;;;6.00;6.00;;;;;;;;5281342;27;8768;-70
2023/01/16 10:12:57;;;;;;;;;6.00;6.00;;;;;;;;5297641;27;8787;-70
2023/01/16 10:15:38;;;;;;;;;7.00;7.00;;;;;;;;5314666;27;8776;-69
2023/01/16 10:18:32;;;;;;;;;60.80;48.20;;;;;;;;5314973;27;8883;-70
2023/01/16 10:21:03;;;;;;;;;15.60;15.40;;;;;;;;5314384;27;8784;-69
2023/01/16 10:23:44;;;;;;;;;16.25;16.25;;;;;;;;5296790;27;8783;-69
2023/01/16 10:26:53;;;;;;;;;23.00;21.80;;;;;;;;5299177;27;9260;-69
2023/01/16 10:29:30;;;;;;;;;23.80;23.80;;;;;;;;5313630;27;8771;-68
2023/01/16 10:32:05;;;;;;;;;18.20;17.60;;;;;;;;5279980;27;8767;-70
2023/01/16 10:34:44;;;;;;;;;20.20;20.20;;;;;;;;5296828;27;8835;-70
2023/01/16 10:37:35;;;;;;;;;20.60;18.00;;;;;;;;5299276;27;8779;-68
2023/01/16 10:40:15;;;;;;;;;14.60;14.60;;;;;;;;5313937;27;8779;-68
2023/01/16 10:51:37;;;;;;;;;21.00;20.80;;;;;;;;5313321;27;8788;-70
2023/01/16 10:54:09;;;;;;;;;10.40;10.40;;;;;;;;5313377;27;8803;-70
2023/01/16 10:56:43;;;;;;;;;11.80;10.80;;;;;;;;5296262;27;8765;-69
2023/01/16 10:59:33;;;;;;;;;9.80;9.80;;;;;;;;5314040;27;8764;-70
2023/01/16 11:02:14;;;;;;;;;4.00;3.20;;;;;;;;5279624;27;8834;-71
2023/01/16 11:05:21;;;;;;;;;12.80;12.80;;;;;;;;5314093;27;8824;-70
2023/01/16 11:08:01;;;;;;;;;11.60;11.60;;;;;;;;5296755;27;8768;-71
2023/01/16 11:10:32;;;;;;;;;4.00;4.00;;;;;;;;5278753;27;8761;-70
2023/01/16 11:19:16;;;;;;;;;13.80;10.60;;;;;;;;5296391;27;8894;-70
2023/01/16 11:21:52;;;;;;;;;5.20;5.20;;;;;;;;5296599;27;8867;-70
2023/01/16 11:24:29;;;;;;;;;10.00;10.00;;;;;;;;5313966;27;8835;-71
2023/01/16 11:27:02;;;;;;;;;18.20;15.40;;;;;;;;5331938;27;8783;-70
2023/01/16 11:29:36;;;;;;;;;14.00;12.00;;;;;;;;5296204;27;8776;-71
2023/01/16 11:32:08;;;;;;;;;10.80;10.80;;;;;;;;5278681;27;8910;-71
2023/01/16 11:34:44;;;;;;;;;9.60;9.60;;;;;;;;5313972;27;8796;-71
2023/01/16 11:37:16;;;;;;;;;11.00;9.20;;;;;;;;5295769;27;8788;-71
2023/01/16 11:39:49;;;;;;;;;6.80;6.80;;;;;;;;5278967;27;8799;-71
2023/01/16 11:48:23;;;;;;;;;10.60;9.80;;;;;;;;5313508;27;8807;-69
2023/01/16 11:50:57;;;;;;;;;9.20;9.20;;;;;;;;5295995;27;8783;-71
2023/01/16 11:53:33;;;;;;;;;94.60;66.60;;;;;;;;5295400;27;8811;-71
2023/01/16 11:56:24;;;;;;;;;10.40;10.40;;;;;;;;5313031;27;8780;-71
2023/01/16 11:58:55;;;;;;;;;9.00;9.00;;;;;;;;5271467;27;9467;-70
2023/01/16 12:02:15;;;;;;;;;9.80;9.40;;;;;;;;5295201;27;8883;-70
2023/01/16 12:04:23;;;;;;;;;15.40;13.80;;;;;;;;5312269;27;8795;-70
2023/01/16 12:06:54;;;;;;;;;15.20;14.60;;;;;;;;5295213;27;8784;-69
2023/01/16 12:09:37;;;;;;;;;15.00;15.00;;;;;;;;5295891;27;8795;-72
2023/01/16 12:15:03;;;;;;;;;12.40;11.60;;;;;;;;5330878;27;8792;-70
2023/01/16 12:17:42;;;;;;;;;7.40;6.60;;;;;;;;5295626;27;8772;-71
2023/01/16 12:20:22;;;;;;;;;8.80;8.80;;;;;;;;5278423;27;8791;-72
2023/01/16 12:22:59;;;;;;;;;15.00;15.00;;;;;;;;5280198;27;8771;-73
2023/01/16 12:25:46;;;;;;;;;12.00;12.00;;;;;;;;5299822;27;8847;-72
2023/01/16 12:28:17;;;;;;;;;14.20;13.00;;;;;;;;5299628;27;8776;-72
2023/01/16 12:30:58;;;;;;;;;14.00;14.00;;;;;;;;5282376;27;8804;-70
2023/01/16 12:37:58;;;;;;;;;10.00;10.00;;;;;;;;5335549;27;9474;-71
2023/01/16 12:40:32;;;;;;;;;15.00;15.00;;;;;;;;5299940;27;8776;-70
2023/01/16 12:43:23;;;;;;;;;10.40;9.40;;;;;;;;5282274;27;8773;-71
2023/01/16 12:45:57;;;;;;;;;14.40;14.00;;;;;;;;5281853;27;8794;-71
2023/01/16 12:48:35;;;;;;;;;8.40;8.40;;;;;;;;5281643;27;8772;-71
2023/01/16 12:51:24;;;;;;;;;8.00;8.00;;;;;;;;5282567;27;9540;-70
2023/01/16 12:54:29;;;;;;;;;10.80;10.00;;;;;;;;5316416;27;8786;-71
2023/01/16 12:57:03;;;;;;;;;6.60;6.60;;;;;;;;5282800;27;9431;-71
2023/01/16 13:00:03;;;;;;;;;10.20;10.20;;;;;;;;5298782;27;8760;-71
2023/01/16 13:02:38;;;;;;;;;12.40;12.40;;;;;;;;5298587;27;8764;-71
2023/01/16 13:05:18;;;;;;;;;7.80;7.20;;;;;;;;5281794;27;8775;-71
2023/01/16 13:08:06;;;;;;;;;18.60;18.60;;;;;;;;5298823;27;8772;-72
2023/01/16 13:13:30;;;;;;;;;9.60;9.20;;;;;;;;5298984;27;8783;-70
2023/01/16 13:16:16;;;;;;;;;17.60;17.40;;;;;;;;5298372;27;8768;-71
2023/01/16 13:18:54;;;;;;;;;4.80;4.80;;;;;;;;5334275;27;9605;-69
2023/01/16 13:21:27;;;;;;;;;13.80;13.00;;;;;;;;5315717;27;9480;-70
2023/01/16 13:24:01;;;;;;;;;14.40;14.40;;;;;;;;5315603;27;8772;-71
2023/01/16 13:26:55;;;;;;;;;14.60;12.40;;;;;;;;5333975;27;8910;-70
2023/01/16 13:29:48;;;;;;;;;15.00;15.00;;;;;;;;5315659;27;8831;-70
2023/01/16 13:32:24;;;;;;;;;22.40;21.60;;;;;;;;5298305;27;8818;-71
2023/01/16 13:35:22;;;;;;;;;20.00;19.00;;;;;;;;5299829;27;8934;-71
2023/01/16 13:38:06;;;;;;;;;34.20;32.80;;;;;;;;5315201;27;8764;-71
2023/01/16 13:40:55;;;;;;;;;24.40;24.20;;;;;;;;5298650;27;8779;-69
2023/01/16 13:46:21;;;;;;;;;18.40;17.80;;;;;;;;5298148;27;9531;-68
2023/01/16 13:48:54;;;;;;;;;15.40;15.40;;;;;;;;5298079;27;8772;-69
2023/01/16 13:51:25;;;;;;;;;13.00;12.40;;;;;;;;5297851;27;9463;-70
2023/01/16 13:54:04;;;;;;;;;11.00;9.60;;;;;;;;5314952;27;9541;-69
2023/01/16 13:56:40;;;;;;;;;15.20;14.00;;;;;;;;5297591;27;8807;-70
2023/01/16 13:59:48;;;;;;;;;15.80;15.80;;;;;;;;5297765;27;8764;-70
2023/01/16 14:02:37;;;;;;;;;6.00;5.60;;;;;;;;5250001;28;8786;-70
2023/01/16 14:05:18;;;;;;;;;7.80;7.80;;;;;;;;5296444;27;8787;-69
2023/01/16 14:10:45;;;;;;;;;7.60;7.60;;;;;;;;5297326;27;8780;-70
2023/01/16 14:13:21;;;;;;;;;2.60;2.60;;;;;;;;5333057;27;8796;-70
2023/01/16 14:16:31;;;;;;;;;5.60;5.20;;;;;;;;5333252;27;8858;-70
2023/01/16 14:19:22;;;;;;;;;31.00;28.80;;;;;;;;5297836;27;8802;-70
2023/01/16 14:24:43;;;;;;;;;61.50;49.25;;;;;;;;5297236;27;8776;-69
2023/01/16 14:27:17;;;;;;;;;41.80;38.60;;;;;;;;5297034;27;8800;-69
2023/01/16 14:30:18;;;;;;;;;34.80;33.00;;;;;;;;5332601;27;8776;-68
2023/01/16 14:32:54;;;;;;;;;22.80;20.00;;;;;;;;5314141;27;8771;-68
2023/01/16 14:35:49;;;;;;;;;10.00;9.60;;;;;;;;5316713;27;8776;-68
2023/01/16 14:38:44;;;;;;;;;22.60;22.60;;;;;;;;5299577;27;8764;-69
2023/01/16 14:55:42;;;;;;;;;6.00;6.00;;;;;;;;5313409;27;8780;-69
2023/01/16 14:58:15;;;;;;;;;9.80;9.20;;;;;;;;5296794;27;8761;-70
2023/01/16 15:00:49;;;;;;;;;10.60;10.60;;;;;;;;5332195;27;8768;-69
2023/01/16 15:03:23;;;;;;;;;6.20;6.20;;;;;;;;5280096;27;8788;-70
2023/01/16 15:06:12;;;;;;;;;9.80;9.40;;;;;;;;5314511;27;8752;-69
2023/01/16 15:09:03;;;;;;;;;10.80;10.80;;;;;;;;5316407;27;8752;-70
2023/01/16 15:11:44;;;;;;;;;8.20;8.20;;;;;;;;5295921;27;8768;-69
2023/01/16 15:14:25;;;;;;;;;12.60;12.60;;;;;;;;5313024;27;8807;-70
2023/01/16 15:22:54;;;;;;;;;12.20;12.00;;;;;;;;5313013;27;8761;-70
2023/01/16 15:29:49;;;;;;;;;9.00;7.00;;;;;;;;5331248;27;8712;-69
2023/01/16 15:32:21;;;;;;;;;8.50;8.50;;;;;;;;5295608;27;8772;-70
2023/01/16 15:35:11;;;;;;;;;6.80;6.80;;;;;;;;5296092;27;9482;-71
2023/01/16 15:37:49;;;;;;;;;8.40;8.40;;;;;;;;5278946;27;8887;-70
2023/01/16 15:40:48;;;;;;;;;3.00;3.00;;;;;;;;5312604;27;8787;-71
2023/01/16 15:46:32;;;;;;;;;3.40;2.60;;;;;;;;5295769;27;8792;-70
2023/01/16 15:49:10;;;;;;;;;6.00;6.00;;;;;;;;5312449;27;8890;-70
2023/01/16 15:51:51;;;;;;;;;6.20;6.20;;;;;;;;5278564;27;8772;-70
2023/01/16 15:54:30;;;;;;;;;9.20;9.20;;;;;;;;5279244;27;8811;-70
2023/01/16 15:57:16;;;;;;;;;6.20;6.20;;;;;;;;5314603;27;8764;-70
2023/01/16 16:00:30;;;;;;;;;12.40;12.40;;;;;;;;5315757;27;8784;-73
2023/01/16 16:03:10;;;;;;;;;8.20;8.20;;;;;;;;5278991;27;8780;-71
2023/01/16 16:05:46;;;;;;;;;18.00;17.20;;;;;;;;5296557;27;8764;-70
2023/01/16 16:08:18;;;;;;;;;24.60;24.20;;;;;;;;5313336;27;8810;-71
2023/01/16 16:18:16;;;;;;;;;15.00;15.00;;;;;;;;5318643;27;8756;-69
2023/01/16 16:20:51;;;;;;;;;9.00;9.00;;;;;;;;5320293;27;8776;-69
2023/01/16 16:23:36;;;;;;;;;;;;;;;;;;;;;
2023/01/16 16:31:20;;;;;;;;;3.00;3.00;;;;;;;;5305598;27;9551;-72
2023/01/16 16:38:33;;;;;;;;;6.80;4.40;;;;;;;;5309484;27;8698;-73
2023/01/16 16:49:16;;;;;;;;;1.00;1.00;;;;;;;;5309369;27;8782;-70
2023/01/16 16:51:47;;;;;;;;;3.75;3.75;;;;;;;;5277732;27;8897;-70
2023/01/16 16:54:37;;;;;;;;;5.60;4.80;;;;;;;;5296289;27;10850;-71
2023/01/16 16:57:09;;;;;;;;;3.60;3.60;;;;;;;;5295046;27;8817;-71
2023/01/16 16:59:58;;;;;;;;;13.80;13.80;;;;;;;;5297810;27;8771;-69
2023/01/16 17:02:39;;;;;;;;;7.40;7.40;;;;;;;;5299734;27;8770;-73
2023/01/16 17:05:18;;;;;;;;;13.80;12.60;;;;;;;;5333980;27;8778;-71
2023/01/16 17:07:50;;;;;;;;;10.20;10.20;;;;;;;;5315794;27;8770;-71
2023/01/16 17:10:21;;;;;;;;;21.80;21.20;;;;;;;;5318812;27;8770;-71
2023/01/16 17:12:52;;;;;;;;;14.40;14.40;;;;;;;;5333213;27;8903;-72
2023/01/16 17:15:23;;;;;;;;;9.80;9.80;;;;;;;;5314835;27;8800;-72
2023/01/16 17:17:56;;;;;;;;;16.40;16.40;;;;;;;;5281423;27;8910;-71
2023/01/16 17:20:27;;;;;;;;;11.60;10.80;;;;;;;;5298454;27;8772;-70
2023/01/16 17:22:58;;;;;;;;;4.60;4.60;;;;;;;;5298795;27;8784;-71
2023/01/16 17:25:30;;;;;;;;;3.00;3.00;;;;;;;;5297848;27;8826;-71
2023/01/16 17:28:01;;;;;;;;;0.20;0.20;;;;;;;;5298346;27;8792;-71
2023/01/16 17:30:32;;;;;;;;;15.40;10.00;;;;;;;;5297909;27;8772;-72
2023/01/16 17:33:11;;;;;;;;;6.00;6.00;;;;;;;;5298504;27;8810;-72
2023/01/16 17:36:08;;;;;;;;;7.20;5.60;;;;;;;;5315149;27;8792;-72
2023/01/16 17:38:41;;;;;;;;;3.60;3.60;;;;;;;;5297793;27;8788;-72
2023/01/16 17:45:51;;;;;;;;;3.40;3.40;;;;;;;;5281444;27;8764;-72
2023/01/16 17:47:22;;;;;;;;;12.00;11.60;;;;;;;;5325015;27;8793;-70
2023/01/16 17:50:21;;;;;;;;;6.20;6.20;;;;;;;;5313739;27;9396;-70
2023/01/16 17:53:12;;;;;;;;;4.40;4.40;;;;;;;;5300691;27;8783;-71
2023/01/16 17:55:55;;;;;;;;;13.00;13.00;;;;;;;;5291276;27;8788;-71
2023/01/16 17:58:49;;;;;;;;;48.80;41.20;;;;;;;;5295790;27;8778;-70
2023/01/16 18:01:25;;;;;;;;;6.80;6.80;;;;;;;;5279053;27;8792;-70
2023/01/16 18:04:00;;;;;;;;;13.40;11.60;;;;;;;;5314180;27;9527;-69
2023/01/16 18:06:49;;;;;;;;;14.60;14.20;;;;;;;;5317128;27;8784;-71
2023/01/16 18:09:20;;;;;;;;;13.00;11.20;;;;;;;;5280384;27;8806;-71
2023/01/16 18:17:48;;;;;;;;;9.00;7.00;;;;;;;;5297655;27;8773;-70
2023/01/16 18:20:19;;;;;;;;;9.60;9.60;;;;;;;;5280638;27;8787;-70
2023/01/16 18:22:51;;;;;;;;;6.80;6.80;;;;;;;;5280332;27;8948;-70
2023/01/16 18:25:46;;;;;;;;;9.00;8.60;;;;;;;;5299511;27;8780;-70
2023/01/16 18:28:17;;;;;;;;;6.20;6.20;;;;;;;;5297655;27;9665;-71
2023/01/16 18:30:48;;;;;;;;;10.80;10.80;;;;;;;;5313880;27;8932;-70
2023/01/16 18:33:19;;;;;;;;;8.20;8.20;;;;;;;;5296862;27;8914;-71